createdAt,value
2019-05-25T00:04:55.021Z,72.57
2019-05-25T00:09:59.402Z,72.66
2019-05-25T00:15:05.517Z,73.37
2019-05-25T00:20:09.930Z,72.47
2019-05-25T00:25:14.412Z,72.22
2019-05-25T00:30:18.778Z,71.97
2019-05-25T00:35:23.554Z,73.02
2019-05-25T00:40:28.006Z,73.58
2019-05-25T00:45:32.447Z,73.37
2019-05-25T00:50:36.895Z,72.75
2019-05-25T00:55:41.250Z,72.88
2019-05-25T01:00:45.674Z,71.62
2019-05-25T01:05:50.078Z,72.11
2019-05-25T01:10:54.424Z,72.62
2019-05-25T01:15:59.290Z,72.10
2019-05-25T01:21:04.032Z,71.96
2019-05-25T01:26:08.373Z,71.85
2019-05-25T01:31:12.814Z,75.66
2019-05-25T01:36:17.212Z,74.06
2019-05-25T01:41:21.596Z,73.87
2019-05-25T01:46:26.003Z,73.85
2019-05-25T01:51:30.371Z,73.51
2019-05-25T01:56:34.729Z,75.36
2019-05-25T02:01:39.134Z,76.09
2019-05-25T02:06:44.571Z,77.68
2019-05-25T02:11:48.917Z,79.73
2019-05-25T02:16:53.290Z,80.22
2019-05-25T02:21:57.607Z,79.78
2019-05-25T02:27:01.945Z,79.29
2019-05-25T02:32:06.299Z,78.77
2019-05-25T02:37:10.670Z,78.01
2019-05-25T02:42:15.137Z,77.55
2019-05-25T02:47:19.552Z,77.95
2019-05-25T02:52:23.868Z,77.31
2019-05-25T02:57:28.211Z,77.15
2019-05-25T03:02:32.855Z,77.12
2019-05-25T03:07:37.204Z,76.58
2019-05-25T03:12:41.568Z,77.16
2019-05-25T03:17:45.910Z,77.95
2019-05-25T03:22:50.245Z,77.95
2019-05-25T03:27:54.611Z,77.65
2019-05-25T03:32:58.985Z,78.35
2019-05-25T03:38:03.408Z,78.65
2019-05-25T03:43:07.713Z,78.67
2019-05-25T03:48:12.066Z,78.37
2019-05-25T03:53:16.455Z,77.53
2019-05-25T03:58:20.832Z,78.64
2019-05-25T04:03:25.241Z,77.85
2019-05-25T04:08:29.592Z,77.42
2019-05-25T04:13:33.972Z,76.76
2019-05-25T04:18:38.450Z,76.63
2019-05-25T04:23:42.829Z,75.02
2019-05-25T04:28:47.321Z,74.93
2019-05-25T04:33:51.675Z,74.73
2019-05-25T04:38:56.096Z,73.76
2019-05-25T04:44:00.519Z,74.93
2019-05-25T04:49:04.840Z,73.29
2019-05-25T04:54:09.210Z,73.32
2019-05-25T04:59:13.577Z,71.79
2019-05-25T05:04:18.092Z,71.80
2019-05-25T05:09:22.487Z,73.61
2019-05-25T05:14:26.805Z,72.54
2019-05-25T05:19:31.207Z,70.79
2019-05-25T05:24:35.561Z,71.13
2019-05-25T05:29:39.908Z,72.37
2019-05-25T05:34:44.274Z,69.13
2019-05-25T05:39:48.804Z,66.40
2019-05-25T05:44:56.047Z,66.22
2019-05-25T05:50:00.886Z,66.36
2019-05-25T05:55:08.279Z,64.43
2019-05-25T06:00:13.995Z,65.23
2019-05-25T06:05:18.363Z,63.76
2019-05-25T06:10:22.992Z,64.72
2019-05-25T06:15:27.356Z,62.94
2019-05-25T06:20:31.739Z,63.15
2019-05-25T06:25:36.125Z,63.28
2019-05-25T06:30:40.466Z,63.31
2019-05-25T06:35:44.882Z,62.33
2019-05-25T06:40:49.251Z,62.76
2019-05-25T06:45:53.635Z,61.17
2019-05-25T06:50:57.986Z,59.59
2019-05-25T06:56:02.336Z,60.16
2019-05-25T07:01:06.718Z,53.49
2019-05-25T07:06:11.053Z,52.42
2019-05-25T07:11:15.402Z,53.31
2019-05-25T07:16:19.749Z,54.21
2019-05-25T07:21:24.191Z,53.63
2019-05-25T07:26:28.555Z,53.30
2019-05-25T07:31:32.921Z,51.38
2019-05-25T07:36:37.289Z,50.30
2019-05-25T07:41:41.643Z,50.84
2019-05-25T07:46:46.020Z,49.50
2019-05-25T07:51:50.388Z,50.23
2019-05-25T07:56:54.740Z,49.63
2019-05-25T08:01:59.170Z,49.50
2019-05-25T08:07:03.608Z,49.40
2019-05-25T08:12:07.967Z,50.37
2019-05-25T08:17:12.314Z,52.32
2019-05-25T08:22:16.655Z,53.18
2019-05-25T08:27:21.074Z,53.32
2019-05-25T08:32:25.461Z,54.31
2019-05-25T08:37:29.825Z,52.35
2019-05-25T08:42:34.206Z,51.43
2019-05-25T08:47:38.566Z,50.18
2019-05-25T08:52:43.044Z,49.88
2019-05-25T08:57:49.056Z,50.38
2019-05-25T09:02:53.903Z,49.31
2019-05-25T09:08:01.141Z,48.87
2019-05-25T09:13:11.988Z,50.74
2019-05-25T09:18:17.987Z,50.79
2019-05-25T09:23:22.351Z,52.76
2019-05-25T09:28:26.734Z,52.13
2019-05-25T09:33:31.082Z,52.03
2019-05-25T09:38:35.477Z,52.23
2019-05-25T09:43:39.815Z,51.18
2019-05-25T09:48:44.201Z,52.17
2019-05-25T09:53:48.587Z,51.02
2019-05-25T09:58:53.302Z,51.53
2019-05-25T10:03:57.670Z,50.95
2019-05-25T10:09:02.070Z,49.96
2019-05-25T10:14:06.617Z,50.45
2019-05-25T10:19:10.969Z,51.26
2019-05-25T10:24:15.345Z,51.20
2019-05-25T10:29:34.174Z,50.79
2019-05-25T10:34:26.843Z,50.66
2019-05-25T10:39:31.318Z,50.52
2019-05-25T10:44:35.650Z,49.63
2019-05-25T10:49:40.020Z,49.73
2019-05-25T10:54:44.718Z,50.27
2019-05-25T10:59:53.118Z,50.67
2019-05-25T11:04:55.183Z,50.36
2019-05-25T11:09:59.544Z,51.40
2019-05-25T11:15:05.801Z,51.51
2019-05-25T11:20:11.798Z,50.49
2019-05-25T11:25:16.375Z,50.31
2019-05-25T11:30:21.043Z,51.96
2019-05-25T11:35:25.392Z,50.94
2019-05-25T11:40:29.886Z,51.36
2019-05-25T11:45:34.269Z,50.63
2019-05-25T11:50:38.630Z,50.89
2019-05-25T11:55:43.003Z,50.52
2019-05-25T12:00:47.366Z,52.18
2019-05-25T12:05:51.874Z,53.19
2019-05-25T12:10:56.232Z,53.22
2019-05-25T12:16:00.834Z,53.26
2019-05-25T12:21:05.471Z,55.00
2019-05-25T12:26:09.891Z,55.96
2019-05-25T12:31:14.271Z,54.87
2019-05-25T12:36:18.637Z,54.73
2019-05-25T12:41:22.994Z,54.25
2019-05-25T12:46:27.366Z,53.56
2019-05-25T12:51:32.296Z,54.30
2019-05-25T12:56:36.689Z,54.03
2019-05-25T13:01:41.112Z,55.79
2019-05-25T13:06:45.468Z,54.49
2019-05-25T13:11:49.815Z,55.07
2019-05-25T13:16:54.174Z,55.04
2019-05-25T13:21:58.547Z,54.39
2019-05-25T13:27:03.015Z,50.93
2019-05-25T13:32:07.419Z,51.34
2019-05-25T13:37:12.265Z,51.64
2019-05-25T13:42:16.661Z,50.48
2019-05-25T13:47:21.040Z,50.08
2019-05-25T13:52:25.393Z,51.50
2019-05-25T13:57:29.822Z,52.32
2019-05-25T14:02:34.209Z,52.10
2019-05-25T14:07:38.618Z,52.73
2019-05-25T14:12:42.968Z,52.02
2019-05-25T14:17:47.373Z,52.98
2019-05-25T14:22:51.925Z,52.70
2019-05-25T14:27:56.294Z,52.90
2019-05-25T14:33:00.653Z,52.84
2019-05-25T14:38:05.022Z,52.46
2019-05-25T14:43:09.370Z,54.31
2019-05-25T14:48:13.728Z,54.07
2019-05-25T14:53:18.188Z,53.16
2019-05-25T14:58:22.542Z,54.49
2019-05-25T15:03:26.888Z,53.24
2019-05-25T15:08:31.271Z,52.30
2019-05-25T15:13:35.647Z,53.59
2019-05-25T15:18:40.046Z,53.47
2019-05-25T15:23:44.405Z,54.13
2019-05-25T15:28:48.781Z,54.02
2019-05-25T15:33:53.226Z,54.83
2019-05-25T15:38:57.581Z,55.63
2019-05-25T15:44:02.068Z,54.85
2019-05-25T15:49:06.450Z,54.67
2019-05-25T15:54:10.991Z,54.98
2019-05-25T15:59:15.796Z,55.10
2019-05-25T16:04:20.371Z,54.85
2019-05-25T16:09:24.827Z,54.74
2019-05-25T16:14:29.207Z,55.00
2019-05-25T16:19:33.604Z,54.17
2019-05-25T16:24:38.007Z,54.04
2019-05-25T16:29:42.599Z,54.71
2019-05-25T16:34:47.156Z,55.10
2019-05-25T16:39:51.684Z,54.80
2019-05-25T16:44:56.117Z,55.85
2019-05-25T16:50:00.653Z,55.13
2019-05-25T16:55:06.822Z,55.63
2019-05-25T17:00:11.247Z,55.17
2019-05-25T17:05:15.904Z,55.10
2019-05-25T17:10:21.018Z,54.98
2019-05-25T17:15:28.382Z,54.41
2019-05-25T17:20:33.790Z,54.78
2019-05-25T17:25:38.405Z,54.04
2019-05-25T17:30:46.200Z,54.34
2019-05-25T17:35:52.058Z,53.94
2019-05-25T17:41:01.026Z,53.64
2019-05-25T17:46:05.770Z,53.87
2019-05-25T17:51:10.262Z,53.16
2019-05-25T17:56:16.337Z,52.28
2019-05-25T18:01:24.684Z,52.62
2019-05-25T18:06:29.099Z,53.08
2019-05-25T18:11:33.508Z,53.60
2019-05-25T18:16:38.017Z,54.54
2019-05-25T18:21:42.575Z,55.01
2019-05-25T18:26:48.025Z,55.20
2019-05-25T18:31:52.459Z,55.28
2019-05-25T18:36:56.899Z,55.45
2019-05-25T18:42:01.281Z,55.43
2019-05-25T18:47:06.653Z,54.94
2019-05-25T18:52:11.305Z,54.97
2019-05-25T18:57:15.663Z,54.84
2019-05-25T19:02:20.024Z,53.54
2019-05-25T19:07:24.394Z,53.71
2019-05-25T19:12:28.778Z,54.62
2019-05-25T19:17:33.109Z,54.62
2019-05-25T19:22:37.473Z,55.17
2019-05-25T19:27:43.038Z,55.80
2019-05-25T19:32:47.355Z,56.48
2019-05-25T19:37:51.707Z,57.05
2019-05-25T19:42:56.172Z,57.45
2019-05-25T19:48:00.534Z,58.13
2019-05-25T19:53:04.950Z,58.67
2019-05-25T19:58:09.868Z,59.30
2019-05-25T20:03:15.285Z,59.99
2019-05-25T20:08:23.310Z,60.78
2019-05-25T20:13:30.939Z,61.68
2019-05-25T20:18:37.944Z,61.62
2019-05-25T20:23:46.580Z,62.80
2019-05-25T20:29:09.015Z,63.20
2019-05-25T20:34:20.602Z,63.69
2019-05-25T20:39:30.245Z,63.78
2019-05-25T20:44:36.952Z,64.43
2019-05-25T20:49:43.140Z,64.14
2019-05-25T20:54:49.450Z,64.85
2019-05-25T20:59:56.082Z,65.04
2019-05-25T21:05:02.767Z,65.05
2019-05-25T21:10:08.741Z,65.04
2019-05-25T21:15:15.964Z,66.31
2019-05-25T21:20:23.210Z,67.30
2019-05-25T21:25:28.552Z,67.03
2019-05-25T21:30:33.562Z,67.56
2019-05-25T21:35:38.092Z,67.70
2019-05-25T21:40:42.483Z,68.40
2019-05-25T21:45:46.846Z,68.08
2019-05-25T21:50:51.240Z,67.90
2019-05-25T21:55:55.625Z,67.84
2019-05-25T22:01:00.000Z,68.68
2019-05-25T22:06:06.375Z,69.44
2019-05-25T22:11:10.892Z,69.81
2019-05-25T22:16:15.262Z,69.56
2019-05-25T22:21:19.758Z,68.20
2019-05-25T22:26:24.243Z,68.31
2019-05-25T22:31:28.634Z,68.60
2019-05-25T22:36:40.214Z,68.26
2019-05-25T22:41:39.449Z,69.32
2019-05-25T22:46:43.792Z,68.71
2019-05-25T22:51:48.184Z,69.39
2019-05-25T22:56:52.596Z,69.87
2019-05-25T23:01:56.973Z,69.71
2019-05-25T23:07:01.419Z,69.31
2019-05-25T23:12:06.463Z,68.87
2019-05-25T23:17:10.896Z,69.43
2019-05-25T23:22:15.268Z,68.93
2019-05-25T23:27:19.662Z,68.95
2019-05-25T23:32:24.015Z,68.28
2019-05-25T23:37:28.999Z,67.72
2019-05-25T23:42:33.461Z,68.14
2019-05-25T23:47:37.809Z,68.29
2019-05-25T23:52:42.229Z,68.23
2019-05-25T23:57:46.596Z,68.16
